SARE/RES METAR and TAF weather

Enter ICAO airport designator
Station Type Date Time Source
SARE METAR 2021/05/17 21:00 UTC NOAA

SARE 172100Z 16006KT CAVOK 21/13 Q1018


Station Type Date Time Source
SARE Decoded METAR 2021/05/17 21:00 UTC NOAA

Resistencia Aero., Argentina (SARE) 27-27S 059-03W 52M
May 17, 2021 - 05:00 PM EDT / 2021.05.17 2100 UTC
Wind: from the SSE (160 degrees) at 7 MPH (6 KT):0
Visibility: greater than 7 mile(s):0
Temperature: 69 F (21 C)
Dew Point: 55 F (13 C)
Relative Humidity: 60%
Pressure (altimeter): 30.06 in. Hg (1018 hPa)
ob: SARE 172100Z 16006KT CAVOK 21/13 Q1018
cycle: 21

Station Type Date Time Source
SARE TAF 2021/05/17 18:27 UTC NOAA

TAF TAF SARE 171700Z 1718/1818 18005KT 9999 SCT035 TX27/1718Z TN12/1810Z
BECMG 1720/1722 CAVOK PROB40 1808/1812 3000 BR NSC

Example: see airport list